sensor_id;sensor_type;location;lat;lon;timestamp;temperature;humidity
17370;DHT22;8802;52.402;4.920;2023-07-09T00:01:12;26.60;91.20
17370;DHT22;8802;52.402;4.920;2023-07-09T00:03:39;26.60;91.10
17370;DHT22;8802;52.402;4.920;2023-07-09T00:06:08;26.60;91.20
17370;DHT22;8802;52.402;4.920;2023-07-09T00:08:35;26.60;91.10
17370;DHT22;8802;52.402;4.920;2023-07-09T00:11:05;26.60;91.10
17370;DHT22;8802;52.402;4.920;2023-07-09T00:13:35;26.50;91.20
17370;DHT22;8802;52.402;4.920;2023-07-09T00:16:10;26.50;91.30
17370;DHT22;8802;52.402;4.920;2023-07-09T00:18:38;26.50;91.20
17370;DHT22;8802;52.402;4.920;2023-07-09T00:21:04;26.50;91.30
17370;DHT22;8802;52.402;4.920;2023-07-09T00:23:31;26.40;91.40
17370;DHT22;8802;52.402;4.920;2023-07-09T00:25:58;26.40;91.60
17370;DHT22;8802;52.402;4.920;2023-07-09T00:28:26;26.40;91.80
17370;DHT22;8802;52.402;4.920;2023-07-09T00:30:53;26.40;91.70
17370;DHT22;8802;52.402;4.920;2023-07-09T00:33:20;26.30;91.60
17370;DHT22;8802;52.402;4.920;2023-07-09T00:35:48;26.30;91.70
17370;DHT22;8802;52.402;4.920;2023-07-09T00:38:19;26.30;91.60
17370;DHT22;8802;52.402;4.920;2023-07-09T00:40:56;26.30;91.60
17370;DHT22;8802;52.402;4.920;2023-07-09T00:43:24;26.30;91.50
17370;DHT22;8802;52.402;4.920;2023-07-09T00:48:57;26.20;91.80
17370;DHT22;8802;52.402;4.920;2023-07-09T00:51:26;26.20;91.80
17370;DHT22;8802;52.402;4.920;2023-07-09T00:53:58;26.20;91.80
17370;DHT22;8802;52.402;4.920;2023-07-09T00:56:29;26.20;91.90
17370;DHT22;8802;52.402;4.920;2023-07-09T00:59:02;26.20;92.00
17370;DHT22;8802;52.402;4.920;2023-07-09T01:01:32;26.20;92.00
17370;DHT22;8802;52.402;4.920;2023-07-09T01:04:03;26.20;92.00
17370;DHT22;8802;52.402;4.920;2023-07-09T01:06:33;26.10;92.00
17370;DHT22;8802;52.402;4.920;2023-07-09T01:09:00;26.10;92.00
17370;DHT22;8802;52.402;4.920;2023-07-09T01:11:28;26.10;92.10
17370;DHT22;8802;52.402;4.920;2023-07-09T01:13:57;26.10;92.00
17370;DHT22;8802;52.402;4.920;2023-07-09T01:16:29;26.10;92.00
17370;DHT22;8802;52.402;4.920;2023-07-09T01:18:57;26.10;92.10
17370;DHT22;8802;52.402;4.920;2023-07-09T01:21:27;26.10;92.20
17370;DHT22;8802;52.402;4.920;2023-07-09T01:23:54;26.10;92.20
17370;DHT22;8802;52.402;4.920;2023-07-09T01:26:24;26.10;92.10
17370;DHT22;8802;52.402;4.920;2023-07-09T01:28:52;26.10;92.10
17370;DHT22;8802;52.402;4.920;2023-07-09T01:31:20;26.10;92.20
17370;DHT22;8802;52.402;4.920;2023-07-09T01:33:47;26.10;92.50
17370;DHT22;8802;52.402;4.920;2023-07-09T01:36:16;26.00;92.00
17370;DHT22;8802;52.402;4.920;2023-07-09T01:38:45;26.00;92.00
17370;DHT22;8802;52.402;4.920;2023-07-09T01:41:12;26.00;92.30
17370;DHT22;8802;52.402;4.920;2023-07-09T01:43:39;26.00;92.00
17370;DHT22;8802;52.402;4.920;2023-07-09T01:46:07;26.00;92.10
17370;DHT22;8802;52.402;4.920;2023-07-09T01:48:35;26.00;92.20
17370;DHT22;8802;52.402;4.920;2023-07-09T01:51:06;26.00;92.60
17370;DHT22;8802;52.402;4.920;2023-07-09T01:53:34;26.00;92.20
17370;DHT22;8802;52.402;4.920;2023-07-09T01:56:03;26.00;92.20
17370;DHT22;8802;52.402;4.920;2023-07-09T01:58:33;25.90;92.20
17370;DHT22;8802;52.402;4.920;2023-07-09T02:01:00;25.90;92.10
17370;DHT22;8802;52.402;4.920;2023-07-09T02:03:27;25.90;92.20
17370;DHT22;8802;52.402;4.920;2023-07-09T02:05:54;25.90;92.30
17370;DHT22;8802;52.402;4.920;2023-07-09T02:08:23;25.90;92.50
17370;DHT22;8802;52.402;4.920;2023-07-09T02:10:50;25.90;92.50
17370;DHT22;8802;52.402;4.920;2023-07-09T02:13:18;25.80;92.40
17370;DHT22;8802;52.402;4.920;2023-07-09T02:15:45;25.80;92.40
17370;DHT22;8802;52.402;4.920;2023-07-09T02:18:13;25.80;92.30
17370;DHT22;8802;52.402;4.920;2023-07-09T02:20:40;25.80;92.40
17370;DHT22;8802;52.402;4.920;2023-07-09T02:23:07;25.80;92.30
17370;DHT22;8802;52.402;4.920;2023-07-09T02:25:35;25.70;92.40
17370;DHT22;8802;52.402;4.920;2023-07-09T02:28:03;25.70;92.50
17370;DHT22;8802;52.402;4.920;2023-07-09T02:30:31;25.70;92.40
17370;DHT22;8802;52.402;4.920;2023-07-09T02:32:58;25.70;92.50
17370;DHT22;8802;52.402;4.920;2023-07-09T02:35:24;25.70;92.50
17370;DHT22;8802;52.402;4.920;2023-07-09T02:37:51;25.70;92.90
17370;DHT22;8802;52.402;4.920;2023-07-09T02:40:18;25.60;92.60
17370;DHT22;8802;52.402;4.920;2023-07-09T02:42:45;25.60;92.60
17370;DHT22;8802;52.402;4.920;2023-07-09T02:45:12;25.60;92.60
17370;DHT22;8802;52.402;4.920;2023-07-09T02:47:40;25.60;92.60
17370;DHT22;8802;52.402;4.920;2023-07-09T02:50:07;25.50;93.10
17370;DHT22;8802;52.402;4.920;2023-07-09T02:52:34;25.50;93.00
17370;DHT22;8802;52.402;4.920;2023-07-09T02:55:01;25.50;92.90
17370;DHT22;8802;52.402;4.920;2023-07-09T02:57:28;25.50;93.00
17370;DHT22;8802;52.402;4.920;2023-07-09T02:59:55;25.50;93.00
17370;DHT22;8802;52.402;4.920;2023-07-09T03:02:22;25.50;93.00
17370;DHT22;8802;52.402;4.920;2023-07-09T03:04:50;25.40;93.10
17370;DHT22;8802;52.402;4.920;2023-07-09T03:07:17;25.40;93.20
17370;DHT22;8802;52.402;4.920;2023-07-09T03:09:44;25.40;93.30
17370;DHT22;8802;52.402;4.920;2023-07-09T03:12:10;25.40;93.50
17370;DHT22;8802;52.402;4.920;2023-07-09T03:14:37;25.40;93.40
17370;DHT22;8802;52.402;4.920;2023-07-09T03:17:04;25.40;93.30
17370;DHT22;8802;52.402;4.920;2023-07-09T03:19:31;25.30;93.20
17370;DHT22;8802;52.402;4.920;2023-07-09T03:21:59;25.30;93.50
17370;DHT22;8802;52.402;4.920;2023-07-09T03:24:26;25.30;93.50
17370;DHT22;8802;52.402;4.920;2023-07-09T03:26:53;25.30;93.60
17370;DHT22;8802;52.402;4.920;2023-07-09T03:29:20;25.30;93.60
17370;DHT22;8802;52.402;4.920;2023-07-09T03:31:47;25.30;93.60
17370;DHT22;8802;52.402;4.920;2023-07-09T03:34:14;25.30;93.60
17370;DHT22;8802;52.402;4.920;2023-07-09T03:36:41;25.20;93.60
17370;DHT22;8802;52.402;4.920;2023-07-09T03:39:10;25.20;93.60
17370;DHT22;8802;52.402;4.920;2023-07-09T03:41:36;25.20;93.70
17370;DHT22;8802;52.402;4.920;2023-07-09T03:44:04;25.20;93.70
17370;DHT22;8802;52.402;4.920;2023-07-09T03:46:30;25.20;93.80
17370;DHT22;8802;52.402;4.920;2023-07-09T03:48:58;25.20;93.80
17370;DHT22;8802;52.402;4.920;2023-07-09T03:51:25;25.20;93.80
17370;DHT22;8802;52.402;4.920;2023-07-09T03:53:52;25.20;93.90
17370;DHT22;8802;52.402;4.920;2023-07-09T03:56:21;25.20;93.90
17370;DHT22;8802;52.402;4.920;2023-07-09T03:58:47;25.10;94.00
17370;DHT22;8802;52.402;4.920;2023-07-09T04:01:14;25.10;94.10
17370;DHT22;8802;52.402;4.920;2023-07-09T04:03:42;25.10;94.60
17370;DHT22;8802;52.402;4.920;2023-07-09T04:06:09;25.10;94.20
17370;DHT22;8802;52.402;4.920;2023-07-09T04:08:36;25.10;94.40
17370;DHT22;8802;52.402;4.920;2023-07-09T04:11:03;25.10;94.50
17370;DHT22;8802;52.402;4.920;2023-07-09T04:13:31;25.10;94.70
17370;DHT22;8802;52.402;4.920;2023-07-09T04:15:58;25.10;94.50
17370;DHT22;8802;52.402;4.920;2023-07-09T04:18:25;25.10;94.50
17370;DHT22;8802;52.402;4.920;2023-07-09T04:20:52;25.00;94.50
17370;DHT22;8802;52.402;4.920;2023-07-09T04:23:19;25.10;94.60
17370;DHT22;8802;52.402;4.920;2023-07-09T04:25:46;25.00;94.70
17370;DHT22;8802;52.402;4.920;2023-07-09T04:28:14;25.00;94.80
17370;DHT22;8802;52.402;4.920;2023-07-09T04:30:47;25.00;94.70
17370;DHT22;8802;52.402;4.920;2023-07-09T04:33:14;25.00;94.80
17370;DHT22;8802;52.402;4.920;2023-07-09T04:35:43;25.00;95.00
17370;DHT22;8802;52.402;4.920;2023-07-09T04:38:10;25.00;95.10
17370;DHT22;8802;52.402;4.920;2023-07-09T04:40:37;25.00;95.20
17370;DHT22;8802;52.402;4.920;2023-07-09T04:43:04;25.00;95.20
17370;DHT22;8802;52.402;4.920;2023-07-09T04:45:31;25.00;95.40
17370;DHT22;8802;52.402;4.920;2023-07-09T04:47:59;25.00;95.50
17370;DHT22;8802;52.402;4.920;2023-07-09T04:50:26;25.00;95.90
17370;DHT22;8802;52.402;4.920;2023-07-09T04:52:53;25.00;95.60
17370;DHT22;8802;52.402;4.920;2023-07-09T04:55:19;25.00;95.60
17370;DHT22;8802;52.402;4.920;2023-07-09T04:57:46;25.00;95.50
17370;DHT22;8802;52.402;4.920;2023-07-09T05:00:14;25.00;95.60
17370;DHT22;8802;52.402;4.920;2023-07-09T05:02:41;25.00;95.70
17370;DHT22;8802;52.402;4.920;2023-07-09T05:05:09;25.10;95.90
17370;DHT22;8802;52.402;4.920;2023-07-09T05:07:37;25.10;96.00
17370;DHT22;8802;52.402;4.920;2023-07-09T05:10:05;25.10;96.00
17370;DHT22;8802;52.402;4.920;2023-07-09T05:12:32;25.10;96.20
17370;DHT22;8802;52.402;4.920;2023-07-09T05:14:59;25.10;96.20
17370;DHT22;8802;52.402;4.920;2023-07-09T05:17:25;25.10;96.20
17370;DHT22;8802;52.402;4.920;2023-07-09T05:19:52;25.20;96.30
17370;DHT22;8802;52.402;4.920;2023-07-09T05:22:21;25.10;96.20
17370;DHT22;8802;52.402;4.920;2023-07-09T05:24:47;25.20;96.10
17370;DHT22;8802;52.402;4.920;2023-07-09T05:27:14;25.20;96.20
17370;DHT22;8802;52.402;4.920;2023-07-09T05:29:41;25.20;96.10
17370;DHT22;8802;52.402;4.920;2023-07-09T05:32:08;25.20;96.10
17370;DHT22;8802;52.402;4.920;2023-07-09T05:34:35;25.20;96.00
17370;DHT22;8802;52.402;4.920;2023-07-09T05:37:02;25.30;96.30
17370;DHT22;8802;52.402;4.920;2023-07-09T05:39:30;25.30;95.90
17370;DHT22;8802;52.402;4.920;2023-07-09T05:41:57;25.30;96.00
17370;DHT22;8802;52.402;4.920;2023-07-09T05:44:24;25.40;96.00
17370;DHT22;8802;52.402;4.920;2023-07-09T05:46:51;25.40;96.00
17370;DHT22;8802;52.402;4.920;2023-07-09T05:49:18;25.50;96.00
17370;DHT22;8802;52.402;4.920;2023-07-09T05:51:45;25.50;95.80
17370;DHT22;8802;52.402;4.920;2023-07-09T05:54:11;25.50;95.80
17370;DHT22;8802;52.402;4.920;2023-07-09T05:56:40;25.60;95.70
17370;DHT22;8802;52.402;4.920;2023-07-09T05:59:07;25.60;95.70
17370;DHT22;8802;52.402;4.920;2023-07-09T06:01:33;25.70;95.70
17370;DHT22;8802;52.402;4.920;2023-07-09T06:04:00;25.70;95.60
17370;DHT22;8802;52.402;4.920;2023-07-09T06:06:28;25.80;95.60
17370;DHT22;8802;52.402;4.920;2023-07-09T06:08:55;25.80;95.50
17370;DHT22;8802;52.402;4.920;2023-07-09T06:11:22;25.90;95.60
17370;DHT22;8802;52.402;4.920;2023-07-09T06:13:51;25.90;95.90
17370;DHT22;8802;52.402;4.920;2023-07-09T06:16:19;26.00;95.50
17370;DHT22;8802;52.402;4.920;2023-07-09T06:18:46;26.00;95.50
17370;DHT22;8802;52.402;4.920;2023-07-09T06:21:13;26.10;95.50
17370;DHT22;8802;52.402;4.920;2023-07-09T06:23:40;26.20;95.50
17370;DHT22;8802;52.402;4.920;2023-07-09T06:26:06;26.20;95.50
17370;DHT22;8802;52.402;4.920;2023-07-09T06:28:33;26.30;95.50
17370;DHT22;8802;52.402;4.920;2023-07-09T06:31:02;26.30;95.50
17370;DHT22;8802;52.402;4.920;2023-07-09T06:33:29;26.40;95.30
17370;DHT22;8802;52.402;4.920;2023-07-09T06:35:58;26.50;95.00
17370;DHT22;8802;52.402;4.920;2023-07-09T06:38:26;26.60;94.50
17370;DHT22;8802;52.402;4.920;2023-07-09T06:40:53;26.60;94.40
17370;DHT22;8802;52.402;4.920;2023-07-09T06:43:20;26.70;94.20
17370;DHT22;8802;52.402;4.920;2023-07-09T06:45:48;26.70;93.90
17370;DHT22;8802;52.402;4.920;2023-07-09T06:48:17;26.80;93.80
17370;DHT22;8802;52.402;4.920;2023-07-09T06:50:44;26.90;93.70
17370;DHT22;8802;52.402;4.920;2023-07-09T06:53:11;27.00;93.60
17370;DHT22;8802;52.402;4.920;2023-07-09T06:55:38;27.10;93.50
17370;DHT22;8802;52.402;4.920;2023-07-09T06:58:05;27.10;92.90
17370;DHT22;8802;52.402;4.920;2023-07-09T07:00:33;27.20;92.90
17370;DHT22;8802;52.402;4.920;2023-07-09T07:03:01;27.30;92.70
17370;DHT22;8802;52.402;4.920;2023-07-09T07:05:29;27.30;91.70
17370;DHT22;8802;52.402;4.920;2023-07-09T07:07:57;27.30;92.40
17370;DHT22;8802;52.402;4.920;2023-07-09T07:10:24;27.40;91.70
17370;DHT22;8802;52.402;4.920;2023-07-09T07:12:52;27.40;91.50
17370;DHT22;8802;52.402;4.920;2023-07-09T07:15:19;27.40;90.90
17370;DHT22;8802;52.402;4.920;2023-07-09T07:17:46;27.50;90.80
17370;DHT22;8802;52.402;4.920;2023-07-09T07:20:14;27.50;90.60
17370;DHT22;8802;52.402;4.920;2023-07-09T07:22:43;27.60;90.50
17370;DHT22;8802;52.402;4.920;2023-07-09T07:25:10;27.60;90.40
17370;DHT22;8802;52.402;4.920;2023-07-09T07:27:37;27.60;90.30
17370;DHT22;8802;52.402;4.920;2023-07-09T07:30:06;27.60;90.10
17370;DHT22;8802;52.402;4.920;2023-07-09T07:32:35;27.70;89.10
17370;DHT22;8802;52.402;4.920;2023-07-09T07:35:02;27.70;88.30
17370;DHT22;8802;52.402;4.920;2023-07-09T07:37:29;27.70;87.80
17370;DHT22;8802;52.402;4.920;2023-07-09T07:39:58;27.80;87.40
17370;DHT22;8802;52.402;4.920;2023-07-09T07:42:25;27.80;87.00
17370;DHT22;8802;52.402;4.920;2023-07-09T07:44:51;27.80;86.70
17370;DHT22;8802;52.402;4.920;2023-07-09T07:47:19;27.90;87.50
17370;DHT22;8802;52.402;4.920;2023-07-09T07:49:46;27.90;86.90
17370;DHT22;8802;52.402;4.920;2023-07-09T07:52:13;27.90;86.70
17370;DHT22;8802;52.402;4.920;2023-07-09T07:54:40;28.00;86.80
17370;DHT22;8802;52.402;4.920;2023-07-09T07:57:08;28.00;86.30
17370;DHT22;8802;52.402;4.920;2023-07-09T07:59:36;28.10;86.50
17370;DHT22;8802;52.402;4.920;2023-07-09T08:02:04;28.10;86.10
17370;DHT22;8802;52.402;4.920;2023-07-09T08:04:31;28.10;86.20
17370;DHT22;8802;52.402;4.920;2023-07-09T08:06:58;28.20;85.30
17370;DHT22;8802;52.402;4.920;2023-07-09T08:09:24;28.20;84.90
17370;DHT22;8802;52.402;4.920;2023-07-09T08:11:51;28.20;85.90
17370;DHT22;8802;52.402;4.920;2023-07-09T08:14:20;28.20;86.40
17370;DHT22;8802;52.402;4.920;2023-07-09T08:16:47;28.20;86.20
17370;DHT22;8802;52.402;4.920;2023-07-09T08:19:17;28.30;86.60
17370;DHT22;8802;52.402;4.920;2023-07-09T08:21:44;28.40;86.50
17370;DHT22;8802;52.402;4.920;2023-07-09T08:24:12;28.40;86.30
17370;DHT22;8802;52.402;4.920;2023-07-09T08:26:39;28.40;87.00
17370;DHT22;8802;52.402;4.920;2023-07-09T08:29:06;28.50;86.90
17370;DHT22;8802;52.402;4.920;2023-07-09T08:31:35;28.50;87.10
17370;DHT22;8802;52.402;4.920;2023-07-09T08:34:02;28.60;87.40
17370;DHT22;8802;52.402;4.920;2023-07-09T08:36:28;28.60;86.90
17370;DHT22;8802;52.402;4.920;2023-07-09T08:38:56;28.70;86.70
17370;DHT22;8802;52.402;4.920;2023-07-09T08:41:37;28.70;86.90
17370;DHT22;8802;52.402;4.920;2023-07-09T08:44:19;28.70;86.70
17370;DHT22;8802;52.402;4.920;2023-07-09T08:46:54;28.80;86.30
17370;DHT22;8802;52.402;4.920;2023-07-09T08:49:41;28.90;86.40
17370;DHT22;8802;52.402;4.920;2023-07-09T08:52:14;28.90;86.20
17370;DHT22;8802;52.402;4.920;2023-07-09T08:54:46;28.90;86.30
17370;DHT22;8802;52.402;4.920;2023-07-09T08:57:20;29.00;86.10
17370;DHT22;8802;52.402;4.920;2023-07-09T08:59:49;29.00;85.70
17370;DHT22;8802;52.402;4.920;2023-07-09T09:02:28;29.10;86.60
17370;DHT22;8802;52.402;4.920;2023-07-09T09:04:56;29.10;86.60
17370;DHT22;8802;52.402;4.920;2023-07-09T09:07:32;29.20;85.40
17370;DHT22;8802;52.402;4.920;2023-07-09T09:10:02;29.20;85.40
17370;DHT22;8802;52.402;4.920;2023-07-09T09:12:33;29.20;85.30
17370;DHT22;8802;52.402;4.920;2023-07-09T09:15:08;29.40;85.30
17370;DHT22;8802;52.402;4.920;2023-07-09T09:17:39;29.50;84.80
17370;DHT22;8802;52.402;4.920;2023-07-09T09:20:09;29.50;84.50
17370;DHT22;8802;52.402;4.920;2023-07-09T09:22:43;29.60;84.40
17370;DHT22;8802;52.402;4.920;2023-07-09T09:25:18;29.70;84.70
17370;DHT22;8802;52.402;4.920;2023-07-09T09:27:47;29.80;84.70
17370;DHT22;8802;52.402;4.920;2023-07-09T09:30:15;29.80;85.10
17370;DHT22;8802;52.402;4.920;2023-07-09T09:32:45;29.90;84.60
17370;DHT22;8802;52.402;4.920;2023-07-09T09:35:14;30.00;83.80
17370;DHT22;8802;52.402;4.920;2023-07-09T09:37:46;30.10;84.30
17370;DHT22;8802;52.402;4.920;2023-07-09T09:40:17;30.20;85.00
17370;DHT22;8802;52.402;4.920;2023-07-09T09:42:44;30.30;84.90
17370;DHT22;8802;52.402;4.920;2023-07-09T09:45:14;30.40;84.60
17370;DHT22;8802;52.402;4.920;2023-07-09T09:47:44;30.50;83.30
17370;DHT22;8802;52.402;4.920;2023-07-09T09:50:13;30.60;83.10
17370;DHT22;8802;52.402;4.920;2023-07-09T09:52:41;30.70;82.60
17370;DHT22;8802;52.402;4.920;2023-07-09T09:55:12;30.80;82.00
17370;DHT22;8802;52.402;4.920;2023-07-09T09:57:39;30.90;81.50
17370;DHT22;8802;52.402;4.920;2023-07-09T10:00:13;31.00;81.30
17370;DHT22;8802;52.402;4.920;2023-07-09T10:02:42;31.10;80.90
17370;DHT22;8802;52.402;4.920;2023-07-09T10:05:14;31.20;79.80
17370;DHT22;8802;52.402;4.920;2023-07-09T10:07:45;31.30;79.50
17370;DHT22;8802;52.402;4.920;2023-07-09T10:10:17;31.30;79.00
17370;DHT22;8802;52.402;4.920;2023-07-09T10:12:50;31.40;77.60
17370;DHT22;8802;52.402;4.920;2023-07-09T10:15:27;31.40;78.10
17370;DHT22;8802;52.402;4.920;2023-07-09T10:18:01;31.50;77.60
17370;DHT22;8802;52.402;4.920;2023-07-09T10:20:36;31.50;77.20
17370;DHT22;8802;52.402;4.920;2023-07-09T10:23:26;31.50;77.40
17370;DHT22;8802;52.402;4.920;2023-07-09T10:26:00;31.50;76.40
17370;DHT22;8802;52.402;4.920;2023-07-09T10:28:46;31.50;77.50
17370;DHT22;8802;52.402;4.920;2023-07-09T10:31:19;31.50;77.00
17370;DHT22;8802;52.402;4.920;2023-07-09T10:33:59;31.60;76.80
17370;DHT22;8802;52.402;4.920;2023-07-09T10:36:41;31.60;76.90
17370;DHT22;8802;52.402;4.920;2023-07-09T10:39:14;31.60;77.20
17370;DHT22;8802;52.402;4.920;2023-07-09T10:41:43;31.60;77.30
17370;DHT22;8802;52.402;4.920;2023-07-09T10:44:16;31.60;78.00
17370;DHT22;8802;52.402;4.920;2023-07-09T10:46:48;31.70;77.60
17370;DHT22;8802;52.402;4.920;2023-07-09T10:49:17;31.70;77.10
17370;DHT22;8802;52.402;4.920;2023-07-09T10:51:50;31.80;77.70
17370;DHT22;8802;52.402;4.920;2023-07-09T10:54:24;31.90;77.70
17370;DHT22;8802;52.402;4.920;2023-07-09T10:56:56;32.00;78.00
17370;DHT22;8802;52.402;4.920;2023-07-09T10:59:28;32.10;77.30
17370;DHT22;8802;52.402;4.920;2023-07-09T11:01:58;32.20;76.40
17370;DHT22;8802;52.402;4.920;2023-07-09T11:04:31;32.30;76.60
17370;DHT22;8802;52.402;4.920;2023-07-09T11:07:04;32.40;76.10
17370;DHT22;8802;52.402;4.920;2023-07-09T11:09:34;32.40;75.80
17370;DHT22;8802;52.402;4.920;2023-07-09T11:12:07;32.40;75.80
17370;DHT22;8802;52.402;4.920;2023-07-09T11:14:39;32.30;77.50
17370;DHT22;8802;52.402;4.920;2023-07-09T11:17:12;32.30;78.80
17370;DHT22;8802;52.402;4.920;2023-07-09T11:19:42;32.30;78.80
17370;DHT22;8802;52.402;4.920;2023-07-09T11:22:21;32.20;79.00
17370;DHT22;8802;52.402;4.920;2023-07-09T11:24:50;32.10;79.80
17370;DHT22;8802;52.402;4.920;2023-07-09T11:27:22;32.00;80.30
17370;DHT22;8802;52.402;4.920;2023-07-09T11:29:57;31.90;80.60
17370;DHT22;8802;52.402;4.920;2023-07-09T11:32:25;31.90;79.90
17370;DHT22;8802;52.402;4.920;2023-07-09T11:34:52;31.80;78.50
17370;DHT22;8802;52.402;4.920;2023-07-09T11:37:24;31.80;78.30
17370;DHT22;8802;52.402;4.920;2023-07-09T11:39:51;31.80;77.90
17370;DHT22;8802;52.402;4.920;2023-07-09T11:42:27;31.80;78.30
17370;DHT22;8802;52.402;4.920;2023-07-09T11:45:00;31.80;78.70
17370;DHT22;8802;52.402;4.920;2023-07-09T11:47:30;31.80;77.70
17370;DHT22;8802;52.402;4.920;2023-07-09T11:50:01;31.80;78.80
17370;DHT22;8802;52.402;4.920;2023-07-09T11:52:34;31.80;78.80
17370;DHT22;8802;52.402;4.920;2023-07-09T11:55:04;31.80;79.80
17370;DHT22;8802;52.402;4.920;2023-07-09T11:57:47;31.90;76.10
17370;DHT22;8802;52.402;4.920;2023-07-09T12:00:15;31.90;75.80
17370;DHT22;8802;52.402;4.920;2023-07-09T12:02:42;31.90;75.30
17370;DHT22;8802;52.402;4.920;2023-07-09T12:05:09;31.90;76.20
17370;DHT22;8802;52.402;4.920;2023-07-09T12:07:38;32.00;75.00
17370;DHT22;8802;52.402;4.920;2023-07-09T12:10:22;32.00;75.00
17370;DHT22;8802;52.402;4.920;2023-07-09T12:12:54;32.10;75.80
17370;DHT22;8802;52.402;4.920;2023-07-09T12:15:23;32.20;73.90
17370;DHT22;8802;52.402;4.920;2023-07-09T12:17:58;32.20;73.30
17370;DHT22;8802;52.402;4.920;2023-07-09T12:20:28;32.30;73.10
17370;DHT22;8802;52.402;4.920;2023-07-09T12:22:58;32.40;72.10
17370;DHT22;8802;52.402;4.920;2023-07-09T12:25:27;32.50;72.10
17370;DHT22;8802;52.402;4.920;2023-07-09T12:27:58;32.50;70.90
17370;DHT22;8802;52.402;4.920;2023-07-09T12:30:25;32.60;70.60
17370;DHT22;8802;52.402;4.920;2023-07-09T12:32:52;32.60;71.90
17370;DHT22;8802;52.402;4.920;2023-07-09T12:35:19;32.60;71.70
17370;DHT22;8802;52.402;4.920;2023-07-09T12:37:48;32.60;71.00
17370;DHT22;8802;52.402;4.920;2023-07-09T12:40:20;32.60;70.70
17370;DHT22;8802;52.402;4.920;2023-07-09T12:42:48;32.50;70.90
17370;DHT22;8802;52.402;4.920;2023-07-09T12:45:17;32.50;71.10
17370;DHT22;8802;52.402;4.920;2023-07-09T12:47:45;32.40;70.90
17370;DHT22;8802;52.402;4.920;2023-07-09T12:50:28;32.40;71.00
17370;DHT22;8802;52.402;4.920;2023-07-09T12:53:00;32.30;70.40
17370;DHT22;8802;52.402;4.920;2023-07-09T12:55:28;32.30;70.10
17370;DHT22;8802;52.402;4.920;2023-07-09T12:57:58;32.20;71.40
17370;DHT22;8802;52.402;4.920;2023-07-09T13:00:29;32.10;71.00
17370;DHT22;8802;52.402;4.920;2023-07-09T13:02:58;32.00;71.10
17370;DHT22;8802;52.402;4.920;2023-07-09T13:05:26;32.00;71.70
17370;DHT22;8802;52.402;4.920;2023-07-09T13:07:54;31.90;71.70
17370;DHT22;8802;52.402;4.920;2023-07-09T13:10:23;31.90;72.00
17370;DHT22;8802;52.402;4.920;2023-07-09T13:12:55;31.80;72.30
17370;DHT22;8802;52.402;4.920;2023-07-09T13:15:25;31.70;72.40
17370;DHT22;8802;52.402;4.920;2023-07-09T13:18:00;31.60;72.50
17370;DHT22;8802;52.402;4.920;2023-07-09T13:20:28;31.50;73.30
17370;DHT22;8802;52.402;4.920;2023-07-09T13:22:56;31.40;73.30
17370;DHT22;8802;52.402;4.920;2023-07-09T13:25:23;31.30;73.20
17370;DHT22;8802;52.402;4.920;2023-07-09T13:27:50;31.10;73.50
17370;DHT22;8802;52.402;4.920;2023-07-09T13:30:18;31.00;73.80
17370;DHT22;8802;52.402;4.920;2023-07-09T13:32:46;30.80;74.20
17370;DHT22;8802;52.402;4.920;2023-07-09T13:35:15;30.70;74.70
17370;DHT22;8802;52.402;4.920;2023-07-09T13:37:42;30.50;75.30
17370;DHT22;8802;52.402;4.920;2023-07-09T13:40:12;30.40;75.90
17370;DHT22;8802;52.402;4.920;2023-07-09T13:42:40;30.30;75.30
17370;DHT22;8802;52.402;4.920;2023-07-09T13:45:18;30.20;75.60
17370;DHT22;8802;52.402;4.920;2023-07-09T13:47:45;30.10;76.60
17370;DHT22;8802;52.402;4.920;2023-07-09T13:50:13;30.00;76.20
17370;DHT22;8802;52.402;4.920;2023-07-09T13:52:42;30.00;76.10
17370;DHT22;8802;52.402;4.920;2023-07-09T13:55:16;29.90;76.50
17370;DHT22;8802;52.402;4.920;2023-07-09T13:57:43;29.80;77.10
17370;DHT22;8802;52.402;4.920;2023-07-09T14:00:12;29.70;76.90
17370;DHT22;8802;52.402;4.920;2023-07-09T14:02:41;29.60;77.10
17370;DHT22;8802;52.402;4.920;2023-07-09T14:05:10;29.50;77.40
17370;DHT22;8802;52.402;4.920;2023-07-09T14:07:40;29.50;77.40
17370;DHT22;8802;52.402;4.920;2023-07-09T14:10:11;29.40;77.20
17370;DHT22;8802;52.402;4.920;2023-07-09T14:12:41;29.30;77.60
17370;DHT22;8802;52.402;4.920;2023-07-09T14:15:13;29.20;78.00
17370;DHT22;8802;52.402;4.920;2023-07-09T14:17:41;29.10;78.50
17370;DHT22;8802;52.402;4.920;2023-07-09T14:20:11;29.00;79.70
17370;DHT22;8802;52.402;4.920;2023-07-09T14:22:40;28.90;78.40
17370;DHT22;8802;52.402;4.920;2023-07-09T14:25:18;28.90;78.80
17370;DHT22;8802;52.402;4.920;2023-07-09T14:27:45;28.80;78.20
17370;DHT22;8802;52.402;4.920;2023-07-09T14:30:15;28.70;78.00
17370;DHT22;8802;52.402;4.920;2023-07-09T14:32:45;28.60;78.60
17370;DHT22;8802;52.402;4.920;2023-07-09T14:35:15;28.50;78.90
17370;DHT22;8802;52.402;4.920;2023-07-09T14:37:45;28.50;79.70
17370;DHT22;8802;52.402;4.920;2023-07-09T14:40:12;28.40;79.70
17370;DHT22;8802;52.402;4.920;2023-07-09T14:42:40;28.30;79.70
17370;DHT22;8802;52.402;4.920;2023-07-09T14:45:17;28.30;80.00
17370;DHT22;8802;52.402;4.920;2023-07-09T14:47:45;28.20;80.00
17370;DHT22;8802;52.402;4.920;2023-07-09T14:50:12;28.10;80.10
17370;DHT22;8802;52.402;4.920;2023-07-09T14:52:40;28.00;80.50
17370;DHT22;8802;52.402;4.920;2023-07-09T14:55:13;27.90;80.60
17370;DHT22;8802;52.402;4.920;2023-07-09T14:57:41;27.80;81.50
17370;DHT22;8802;52.402;4.920;2023-07-09T15:00:13;27.80;82.90
17370;DHT22;8802;52.402;4.920;2023-07-09T15:02:41;27.70;83.70
17370;DHT22;8802;52.402;4.920;2023-07-09T15:05:14;27.60;84.20
17370;DHT22;8802;52.402;4.920;2023-07-09T15:07:42;27.50;85.20
17370;DHT22;8802;52.402;4.920;2023-07-09T15:10:13;27.40;86.80
17370;DHT22;8802;52.402;4.920;2023-07-09T15:12:41;27.30;87.10
17370;DHT22;8802;52.402;4.920;2023-07-09T15:15:16;27.30;89.10
17370;DHT22;8802;52.402;4.920;2023-07-09T15:17:43;27.20;91.10
17370;DHT22;8802;52.402;4.920;2023-07-09T15:20:16;27.10;91.30
17370;DHT22;8802;52.402;4.920;2023-07-09T15:22:43;26.90;91.70
17370;DHT22;8802;52.402;4.920;2023-07-09T15:25:16;26.70;92.10
17370;DHT22;8802;52.402;4.920;2023-07-09T15:27:43;26.40;92.90
17370;DHT22;8802;52.402;4.920;2023-07-09T15:30:18;26.20;93.20
17370;DHT22;8802;52.402;4.920;2023-07-09T15:32:47;25.90;94.00
17370;DHT22;8802;52.402;4.920;2023-07-09T15:35:16;25.60;94.40
17370;DHT22;8802;52.402;4.920;2023-07-09T15:37:44;25.40;95.10
17370;DHT22;8802;52.402;4.920;2023-07-09T15:40:18;25.20;95.90
17370;DHT22;8802;52.402;4.920;2023-07-09T15:42:46;25.00;96.50
17370;DHT22;8802;52.402;4.920;2023-07-09T15:45:14;24.90;96.80
17370;DHT22;8802;52.402;4.920;2023-07-09T15:47:42;24.80;97.30
17370;DHT22;8802;52.402;4.920;2023-07-09T15:50:18;24.60;97.80
17370;DHT22;8802;52.402;4.920;2023-07-09T15:52:46;24.50;97.80
17370;DHT22;8802;52.402;4.920;2023-07-09T15:55:15;24.50;98.20
17370;DHT22;8802;52.402;4.920;2023-07-09T15:57:42;24.40;98.40
17370;DHT22;8802;52.402;4.920;2023-07-09T16:00:15;24.30;98.60